Aviation Digital Data Service (ADDS)

Output produced by METARs form (0030 UTC 31 August 2015)
found at http://www.aviationweather.gov/adds/metars/
 
KSBY 302354Z 17004KT 10SM CLR 24/19 A3009 RMK AO2 SLP191 T02440194 10311 20244 53003
KSBY 302336Z 3100/3124 20004KT P6SM BKN150 OVC250 
     FM311400 21009KT P6SM SCT060 OVC120